Aérodrome :
LOGIN :

S'inscrire | Disclaimer

   EN    FR    IT 

 










Légende :    VFR   VFR Marginal   IFR   IFR Intensif   IFR Très Intensif
Visi : 
Plafond : 
>= 8 km
>= 3000ft
5 à 8 km
1000 à 3000 ft
1500m à 5 km
500 à 1000 ft
800 à 1500m
200 à 500 ft
< 800m
< 200 ft
Symboles :   Orages  Brouillard  Fortes neiges  Fortes précipitations  Vent > 20 kt
SIGMETs :   Divers  Orages  Givrage  Turbulence  Onde Orograph.  Cendres Volcan.






- Altitude de l'aérodrome : 375 ft
- Code IATA : MST


EHBK - Maastricht Aachen

DERNIER METAR :
  • 151755Z AUTO 20006KT 9999 DZRA FEW023 SCT028 OVC037 13/12 Q1007 TEMPO 7000 RA

METARs EXPIRÉS :
  • 151725Z AUTO 20007KT 9999 DZ SCT022 BKN027 OVC032 13/12 Q1007 TEMPO 7000 RA
  • 151655Z AUTO 20006KT 9000 +DZ SCT003 SCT004 BKN035 13/13 Q1007 TEMPO 7000 RA
  • 151625Z AUTO 19004KT 9999 -DZ FEW010 BKN042 OVC046 14/13 Q1007 REDZ TEMPO 7000 RA
  • 151555Z AUTO 21006KT 9999 -DZRA FEW015CB BKN024 OVC030 14/13 Q1007 REDZ TEMPO 7000 RA
  • 151525Z AUTO 23005KT 210V270 9999 -RA BKN033 BKN037 14/13 Q1006 REDZRA TEMPO 4000 RA BKN012

TAF TAF EHBK
Valide du 15 à 18h jusqu'au 17 à 00h UTC


151655Z 1518/1624 22007KT 9999 BKN016
PROB40
TEMPO 1518/1521 6000 DZRA BKN012
BECMG 1608/1611 19013KT 7000 RA



MET'MAP, la Météo Aéronautique d'un coup d'oeil ! - Copyright ORBIFLY Décembre 2007 - Disclaimer

ORBIFLY MET'MAP TEAM :

Programmation & Développement : Alexandra Zaïnal
Conception & Développement : Baudouin d'Aumeries
Co-Programmation & Développement : Marc-Olivier Méhu
Soutien technique & logistique : Manuel Goepfert

Contact : metmap@orbifly.com




SOURCES & CREDITS :

   NOAA